Time;durP1;ratioP1;P1;durP2;ratioP2;P2;SDS_P1;SDS_P2;PMS_P1;PMS_P2;Temp;Humidity;BMP_temperature;BMP_pressure;BME280_temperature;BME280_humidity;BME280_pressure;Samples;Min_cycle;Max_cycle;Signal;HPM_P1;HPM_P2
2023/09/18 00:07:44;;;;;;;49.53;31.80;;;15.30;99.90;;;;;;25587483;23;20009;-60
2023/09/18 00:17:46;;;;;;;46.78;28.65;;;15.20;99.90;;;;;;25587548;23;20059;-60
2023/09/18 00:27:48;;;;;;;44.83;27.10;;;14.90;99.90;;;;;;25594692;23;20017;-54
2023/09/18 00:37:49;;;;;;;34.80;23.40;;;14.60;99.90;;;;;;25594475;23;20009;-60
2023/09/18 00:47:51;;;;;;;43.53;24.67;;;14.10;99.90;;;;;;25593656;23;20005;-59
2023/09/18 00:57:55;;;;;;;40.17;23.25;;;13.80;99.90;;;;;;25593173;23;20009;-57
2023/09/18 01:07:57;;;;;;;29.83;16.77;;;13.70;99.90;;;;;;25592307;23;20437;-60
2023/09/18 01:17:59;;;;;;;38.90;20.05;;;13.50;99.90;;;;;;25590803;23;20355;-59
2023/09/18 01:28:00;;;;;;;31.52;17.77;;;13.50;99.90;;;;;;25591623;23;20009;-59
2023/09/18 01:38:03;;;;;;;29.02;15.57;;;13.50;99.90;;;;;;25590895;23;20441;-59
2023/09/18 01:48:06;;;;;;;31.85;14.00;;;13.40;99.90;;;;;;25590832;23;20005;-59
2023/09/18 01:58:09;;;;;;;27.20;12.18;;;13.40;99.90;;;;;;25590514;23;20511;-59
2023/09/18 02:08:11;;;;;;;28.90;8.95;;;13.40;99.90;;;;;;25563651;23;20348;-59
2023/09/18 02:18:12;;;;;;;25.27;8.93;;;13.60;99.90;;;;;;25589998;23;20005;-59
2023/09/18 02:28:15;;;;;;;25.27;10.25;;;13.50;99.90;;;;;;25587725;23;20012;-60
2023/09/18 02:38:17;;;;;;;25.02;9.07;;;13.50;99.90;;;;;;25562712;23;20013;-59
2023/09/18 02:48:19;;;;;;;19.15;9.73;;;13.50;99.90;;;;;;25588595;23;20313;-54
2023/09/18 02:58:22;;;;;;;23.27;12.60;;;13.30;99.90;;;;;;25537341;23;20080;-59
2023/09/18 03:08:24;;;;;;;28.30;12.15;;;13.30;99.90;;;;;;25561669;23;20383;-59
2023/09/18 03:18:26;;;;;;;40.08;22.10;;;13.30;99.90;;;;;;25586575;23;20001;-59
2023/09/18 03:28:28;;;;;;;25.40;14.50;;;13.50;99.90;;;;;;25560647;23;20055;-59
2023/09/18 03:38:30;;;;;;;26.30;13.02;;;13.60;99.90;;;;;;25586469;23;20009;-59
2023/09/18 03:48:37;;;;;;;28.52;16.35;;;13.50;99.90;;;;;;25587021;23;20059;-60
2023/09/18 03:58:39;;;;;;;32.95;18.13;;;13.40;99.90;;;;;;25606256;23;20337;-59
2023/09/18 04:08:40;;;;;;;41.13;20.77;;;13.50;99.90;;;;;;25592928;23;20005;-60
2023/09/18 04:18:42;;;;;;;35.72;16.50;;;13.20;99.90;;;;;;25566919;23;20013;-60
2023/09/18 04:28:44;;;;;;;37.50;18.08;;;13.00;99.90;;;;;;25542314;23;20017;-59
2023/09/18 04:38:46;;;;;;;39.33;17.45;;;12.70;99.90;;;;;;25566681;23;20013;-59
2023/09/18 04:48:48;;;;;;;49.25;23.50;;;12.80;99.90;;;;;;25566451;23;20332;-59
2023/09/18 04:58:50;;;;;;;45.42;22.05;;;12.90;99.90;;;;;;25592480;23;20005;-60
2023/09/18 05:08:54;;;;;;;52.63;26.00;;;13.00;99.90;;;;;;25565380;23;20008;-59
2023/09/18 05:18:55;;;;;;;58.90;30.27;;;13.40;99.90;;;;;;25591992;23;20001;-60
2023/09/18 05:28:57;;;;;;;78.05;37.95;;;13.80;99.90;;;;;;25590929;23;20017;-59
2023/09/18 05:38:59;;;;;;;68.60;37.00;;;14.40;99.90;;;;;;25590601;23;20005;-60
2023/09/18 05:49:01;;;;;;;62.05;36.03;;;14.90;99.90;;;;;;25590733;23;20009;-60
2023/09/18 05:59:03;;;;;;;53.13;31.80;;;15.10;99.90;;;;;;25590370;23;20005;-59
2023/09/18 06:09:04;;;;;;;45.03;28.88;;;15.30;99.90;;;;;;25589724;23;20012;-55
2023/09/18 06:19:06;;;;;;;46.53;28.10;;;15.40;99.90;;;;;;25589163;23;20009;-59
2023/09/18 06:29:09;;;;;;;43.17;25.95;;;15.50;99.90;;;;;;25588542;23;20013;-59
2023/09/18 06:39:10;;;;;;;34.08;23.42;;;16.00;99.90;;;;;;25563552;23;20072;-55
2023/09/18 06:49:12;;;;;;;30.75;21.75;;;16.30;99.90;;;;;;25562020;23;20001;-59
2023/09/18 06:59:14;;;;;;;30.88;22.40;;;16.70;99.90;;;;;;25587900;23;20068;-60
2023/09/18 07:09:18;;;;;;;39.42;26.17;;;16.70;99.90;;;;;;25587125;23;20063;-59
2023/09/18 07:19:19;;;;;;;37.00;23.98;;;16.40;99.90;;;;;;25587206;23;20479;-59
2023/09/18 07:29:21;;;;;;;32.63;21.80;;;16.50;99.90;;;;;;25588137;23;20013;-59
2023/09/18 07:39:23;;;;;;;32.75;23.38;;;16.40;99.90;;;;;;25595568;23;20016;-59
2023/09/18 07:49:25;;;;;;;32.08;20.80;;;16.50;99.90;;;;;;25595341;23;20028;-59
2023/09/18 07:59:27;;;;;;;25.30;17.20;;;17.10;99.90;;;;;;25594617;23;20009;-60
2023/09/18 08:09:29;;;;;;;23.67;15.73;;;18.20;99.90;;;;;;25594244;23;20013;-59
2023/09/18 08:19:35;;;;;;;19.35;12.90;;;18.60;99.90;;;;;;25593316;23;20056;-56
2023/09/18 08:29:37;;;;;;;18.67;10.57;;;19.00;99.90;;;;;;25613686;23;20052;-60
2023/09/18 08:39:39;;;;;;;17.52;10.52;;;19.30;99.90;;;;;;25592727;23;20254;-60
2023/09/18 08:49:42;;;;;;;20.27;13.00;;;19.10;99.90;;;;;;25593095;23;20005;-60
2023/09/18 08:59:44;;;;;;;25.00;16.98;;;18.40;99.90;;;;;;25592236;23;20314;-56
2023/09/18 09:09:47;;;;;;;19.45;13.52;;;18.50;99.90;;;;;;25591840;23;20032;-60
2023/09/18 09:19:48;;;;;;;22.23;12.98;;;18.90;99.90;;;;;;25591659;23;20005;-57
2023/09/18 09:30:00;;;;;;;20.35;13.70;;;18.80;99.90;;;;;;25591151;23;20009;-60
2023/09/18 09:40:10;;;;;;;23.08;16.40;;;18.60;99.90;;;;;;25590747;23;20314;-57
2023/09/18 09:50:16;;;;;;;34.00;20.27;;;17.90;99.90;;;;;;25631232;23;20005;-56
2023/09/18 10:00:27;;;;;;;28.20;19.95;;;17.40;99.90;;;;;;25631142;23;20005;-63
2023/09/18 10:10:35;;;;;;;322.42;37.08;;;16.90;99.90;;;;;;25630716;23;20001;-63
2023/09/18 10:20:42;;;;;;;1083.70;58.40;;;16.60;99.90;;;;;;25630770;23;20340;-62
2023/09/18 10:30:45;;;;;;;453.92;37.90;;;16.30;99.90;;;;;;25611899;23;20016;-63
2023/09/18 10:40:48;;;;;;;147.05;25.40;;;16.10;99.90;;;;;;25588855;23;20522;-58
2023/09/18 10:50:51;;;;;;;33.85;24.58;;;16.10;99.90;;;;;;25588428;23;20077;-62
2023/09/18 11:00:54;;;;;;;22.60;18.73;;;17.10;99.90;;;;;;25587856;23;20008;-62
2023/09/18 11:11:19;;;;;;;31.27;20.77;;;17.80;99.90;;;;;;25588492;23;20080;-62
2023/09/18 11:21:26;;;;;;;27.85;18.65;;;17.40;99.90;;;;;;25628607;23;20013;-60
2023/09/18 11:31:53;;;;;;;28.90;16.10;;;17.40;99.90;;;;;;25606930;23;20081;-58
2023/09/18 11:42:10;;;;;;;25.27;17.13;;;17.60;99.90;;;;;;25628136;23;20001;-62
2023/09/18 11:52:12;;;;;;;24.45;16.17;;;18.10;99.90;;;;;;25627961;23;20001;-62
2023/09/18 12:02:34;;;;;;;22.23;12.13;;;18.30;99.90;;;;;;25586632;23;20005;-61
2023/09/18 12:12:36;;;;;;;22.20;9.30;;;19.70;99.90;;;;;;25627597;23;20136;-56
2023/09/18 12:22:38;;;;;;;23.80;9.27;;;21.10;99.90;;;;;;25593005;23;20005;-62
2023/09/18 12:32:40;;;;;;;28.08;8.27;;;20.00;99.90;;;;;;25593541;23;20021;-62
2023/09/18 12:42:42;;;;;;;33.08;9.60;;;20.30;99.90;;;;;;25593241;23;20004;-62
2023/09/18 12:52:45;;;;;;;36.83;11.25;;;19.00;99.90;;;;;;25566516;23;20020;-62
2023/09/18 13:02:47;;;;;;;27.17;10.40;;;18.10;99.90;;;;;;25592261;23;20013;-62
2023/09/18 13:12:50;;;;;;;30.00;10.65;;;18.10;99.90;;;;;;25591927;23;20009;-58
2023/09/18 13:22:54;;;;;;;26.77;10.10;;;18.00;99.90;;;;;;25591798;23;20503;-57
2023/09/18 13:33:07;;;;;;;27.40;9.98;;;18.10;99.90;;;;;;25590877;23;20125;-62
2023/09/18 13:43:10;;;;;;;24.05;10.23;;;17.90;99.90;;;;;;25632131;23;20005;-61
2023/09/18 13:53:12;;;;;;;27.27;11.23;;;17.60;99.90;;;;;;25591528;23;20328;-62
2023/09/18 14:03:17;;;;;;;28.77;12.52;;;17.40;99.90;;;;;;25590586;23;20521;-61
2023/09/18 14:13:19;;;;;;;37.20;12.70;;;17.20;99.90;;;;;;25588663;23;20301;-62
2023/09/18 14:23:20;;;;;;;33.83;12.27;;;17.20;99.90;;;;;;25588655;23;20005;-62
2023/09/18 14:33:22;;;;;;;35.38;13.45;;;17.30;99.90;;;;;;25588605;23;20040;-62
2023/09/18 14:43:24;;;;;;;29.38;12.30;;;17.40;99.90;;;;;;25587184;23;20009;-61
2023/09/18 14:53:26;;;;;;;34.55;14.27;;;17.30;99.90;;;;;;25588184;23;20077;-62
2023/09/18 15:03:29;;;;;;;28.63;15.02;;;17.10;99.90;;;;;;25587852;23;20028;-61
2023/09/18 15:13:31;;;;;;;32.22;16.30;;;16.90;99.90;;;;;;25587422;23;20004;-57
2023/09/18 15:23:52;;;;;;;27.48;15.80;;;16.90;99.90;;;;;;25587586;23;20021;-57
2023/09/18 15:33:54;;;;;;;29.73;15.57;;;16.70;99.90;;;;;;25586915;23;20017;-62
2023/09/18 15:43:56;;;;;;;782.70;36.40;;;16.40;99.90;;;;;;25586939;23;20009;-55
2023/09/18 15:53:58;;;;;;;24.40;10.20;;;16.10;99.90;;;;;;25591228;23;20016;-60
2023/09/18 16:04:02;;;;;;;29.63;10.98;;;16.00;99.90;;;;;;25592635;23;20032;-61
2023/09/18 16:14:04;;;;;;;34.17;12.07;;;15.90;99.90;;;;;;25594323;23;20337;-62
2023/09/18 16:24:07;;;;;;;39.08;14.60;;;15.80;99.90;;;;;;25593926;23;20016;-61
2023/09/18 16:34:08;;;;;;;37.38;15.80;;;15.70;99.90;;;;;;25594087;23;20009;-61
2023/09/18 16:44:11;;;;;;;32.47;14.38;;;15.70;99.90;;;;;;25567612;23;20441;-61
2023/09/18 16:54:14;;;;;;;213.00;20.58;;;15.70;99.90;;;;;;25593468;23;20011;-61
2023/09/18 17:04:16;;;;;;;509.40;27.42;;;15.70;99.90;;;;;;25593142;23;20008;-62
2023/09/18 17:14:19;;;;;;;34.28;16.15;;;15.70;99.90;;;;;;25592823;23;20008;-61
2023/09/18 17:24:22;;;;;;;45.97;20.75;;;15.60;99.90;;;;;;25592162;23;20005;-61
2023/09/18 17:34:24;;;;;;;35.25;20.15;;;15.60;99.90;;;;;;25591374;23;20013;-54
2023/09/18 17:44:26;;;;;;;32.55;16.95;;;15.60;99.90;;;;;;25591741;23;20063;-61
2023/09/18 17:54:27;;;;;;;36.33;19.63;;;15.50;99.90;;;;;;25591309;23;20013;-61
2023/09/18 18:04:29;;;;;;;21.10;6.95;;;15.50;99.90;;;;;;25591178;23;20005;-61
2023/09/18 18:14:32;;;;;;;21.33;7.28;;;15.40;99.90;;;;;;25590269;23;20020;-55
2023/09/18 18:24:34;;;;;;;21.30;9.40;;;15.20;99.90;;;;;;25590154;23;20055;-61
2023/09/18 18:34:36;;;;;;;22.38;10.82;;;15.00;99.90;;;;;;25589932;23;20013;-60
2023/09/18 18:44:39;;;;;;;23.23;8.43;;;15.00;99.90;;;;;;25589501;23;20016;-60
2023/09/18 18:54:41;;;;;;;13.32;4.88;;;14.90;99.90;;;;;;25589072;23;20371;-59
2023/09/18 19:04:43;;;;;;;15.80;7.40;;;14.70;99.90;;;;;;25588285;23;20444;-60
2023/09/18 19:14:45;;;;;;;1.42;0.73;;;14.60;99.90;;;;;;25588490;23;20385;-60
2023/09/18 19:24:49;;;;;;;2.78;0.60;;;14.50;99.90;;;;;;25591548;23;20005;-60
2023/09/18 19:34:51;;;;;;;7.18;1.70;;;14.40;99.90;;;;;;25601687;23;20056;-60
2023/09/18 19:44:54;;;;;;;9.55;2.00;;;14.20;99.90;;;;;;25601777;23;20328;-60
2023/09/18 19:54:56;;;;;;;8.25;2.63;;;14.30;99.90;;;;;;25601585;23;20009;-60
2023/09/18 20:04:59;;;;;;;9.48;2.35;;;14.30;99.90;;;;;;25601537;23;20056;-59
2023/09/18 20:15:01;;;;;;;20.45;2.35;;;14.50;99.90;;;;;;25601213;23;20009;-59
2023/09/18 20:25:07;;;;;;;15.00;3.08;;;14.70;99.90;;;;;;25601159;23;20028;-60
2023/09/18 20:35:11;;;;;;;16.45;3.42;;;14.60;99.90;;;;;;25604601;23;20021;-61
2023/09/18 20:45:14;;;;;;;10.30;3.53;;;14.60;99.90;;;;;;25593832;23;20348;-61
2023/09/18 20:55:16;;;;;;;15.15;3.88;;;14.70;99.90;;;;;;25592237;23;20013;-60
2023/09/18 21:05:19;;;;;;;17.52;3.50;;;14.70;99.90;;;;;;25593105;23;20013;-60
2023/09/18 21:15:21;;;;;;;14.93;3.67;;;14.70;99.90;;;;;;25592623;23;20055;-59
2023/09/18 21:25:23;;;;;;;12.63;3.40;;;14.80;99.90;;;;;;25592393;23;20009;-60
2023/09/18 21:35:28;;;;;;;17.02;3.83;;;14.90;99.90;;;;;;25590378;23;20422;-60
2023/09/18 21:45:29;;;;;;;13.55;3.63;;;15.00;99.90;;;;;;25590004;23;20013;-60
2023/09/18 21:55:31;;;;;;;15.02;3.67;;;15.00;99.90;;;;;;25589125;23;20055;-54
2023/09/18 22:05:37;;;;;;;9.93;2.63;;;15.10;99.90;;;;;;25589902;23;20005;-60
2023/09/18 22:15:42;;;;;;;12.20;3.00;;;15.30;99.90;;;;;;25630111;23;20511;-56
2023/09/18 22:25:44;;;;;;;13.93;2.47;;;15.60;99.90;;;;;;25588072;23;20068;-62
2023/09/18 22:35:46;;;;;;;15.32;2.85;;;15.60;99.90;;;;;;25561660;23;20036;-61
2023/09/18 22:46:27;;;;;;;9.98;2.42;;;15.70;99.90;;;;;;25587941;23;20459;-61
2023/09/18 22:56:29;;;;;;;11.50;2.33;;;15.90;99.90;;;;;;25587660;23;20075;-61
2023/09/18 23:06:33;;;;;;;8.02;2.13;;;15.40;99.90;;;;;;25560822;23;20067;-62
2023/09/18 23:16:35;;;;;;;13.18;2.00;;;15.10;99.90;;;;;;25586909;23;20447;-62
2023/09/18 23:26:39;;;;;;;7.82;1.90;;;15.40;99.90;;;;;;25586629;23;20067;-61
2023/09/18 23:36:42;;;;;;;9.35;2.40;;;15.60;99.90;;;;;;25627534;23;20005;-62
2023/09/18 23:46:57;;;;;;;10.95;2.20;;;15.60;99.90;;;;;;25586660;23;20021;-61
2023/09/18 23:57:02;;;;;;;8.43;2.33;;;15.70;99.90;;;;;;25627115;23;20436;-62
